Latest Weather Observations for Lake Macquarie - Cooranbong

IDN60801

Issued at 7:02 pm EST Friday 6 May 2016 (issued every 30 minutes, with the page automatically refreshed every 10 minutes)

About weather observations | Map of weather stations | Latest weather observations for NSW | Other Formats
Station Details ID: 061412 Name: LAKE MACQUARIE AWS Lat: -33.09 Lon: 151.46 Height: 6.0 m
Data from the previous 72 hours. | See also: Recent months at Lake Macquarie - Cooranbong
Date/Time
EST
Temp
°C
App
Temp
°C
Dew
Point
Rel
Hum
%
Delta-T
°C
Wind Press
QNH
hPa
Press
MSL
hPa
Rain
since 9 am
mm
Dir
 
Spd
km/h
Gust
km/h
Spd
kts
Gust
kts
06/07:00pm 13.8 14.3 11.5 86 1.2 CALM 0 0 0 0 1019.4 1019.4 0.2
06/06:30pm 14.2 14.6 11.2 82 1.6 CALM 0 0 0 0 1019.2 1019.2 0.2
06/06:00pm 14.9 15.1 10.7 76 2.2 CALM 0 0 0 0 1018.8 1018.8 0.2
06/05:30pm 17.2 17.3 10.1 63 3.8 CALM 0 0 0 0 1018.4 1018.4 0.2
06/05:00pm 19.8 19.9 10.2 54 5.2 CALM 0 0 0 0 1017.9 1017.9 0.2
06/04:30pm 21.7 20.6 8.6 43 6.9 ESE 4 7 2 4 1017.7 1017.7 0.2
06/04:00pm 22.9 21.2 7.4 37 8.0 E 6 11 3 6 1017.3 1017.3 0.2
06/03:30pm 23.3 21.4 7.4 36 8.3 E 7 15 4 8 1017.3 1017.3 0.2
06/03:00pm 23.7 21.5 7.8 36 8.4 E 9 13 5 7 1017.3 1017.3 0.2
06/02:30pm 24.3 22.9 9.5 39 8.1 E 7 13 4 7 1017.2 1017.2 0.2
06/02:00pm 24.3 23.0 9.1 38 8.2 E 6 11 3 6 1017.1 1017.1 0.2
06/01:30pm 24.7 23.0 9.8 39 8.2 E 9 15 5 8 1017.3 1017.3 0.2
06/01:00pm 24.6 23.0 8.1 35 8.8 SE 6 9 3 5 1017.6 1017.6 0.2
06/12:30pm 24.5 23.3 8.0 35 8.8 SW 4 9 2 5 1017.9 1017.9 0.2
06/12:00pm 24.2 23.4 8.2 36 8.5 S 2 6 1 3 1018.5 1018.5 0.2
06/11:30am 23.8 23.4 9.8 41 7.6 NW 2 4 1 2 1018.8 1018.8 0.2
06/11:00am 23.4 23.5 11.5 47 6.7 WNW 2 7 1 4 1019.3 1019.3 0.0
06/10:30am 21.6 22.3 12.2 55 5.3 CALM 0 4 0 2 1019.7 1019.7 0.0
06/10:00am 20.5 21.3 12.5 60 4.5 CALM 0 4 0 2 1019.7 1019.7 0.0
06/09:30am 18.0 19.0 13.3 74 2.7 CALM 0 0 0 0 1019.9 1019.9 0.0
06/09:00am 15.5 17.0 14.7 95 0.5 CALM 0 2 0 1 1019.9 1019.9 0.0
06/08:30am 13.2 14.1 13.0 99 0.1 CALM 0 0 0 0 1019.7 1019.7 0.0
06/08:00am 10.1 10.1 9.8 98 0.2 CALM 0 0 0 0 1019.6 1019.6 0.0
06/07:30am 8.0 7.4 7.6 97 0.2 CALM 0 0 0 0 1019.2 1019.2 0.0
06/07:00am 7.5 6.8 7.1 97 0.2 CALM 0 0 0 0 1018.6 1018.6 0.0
06/06:30am 7.4 6.7 7.0 97 0.2 CALM 0 0 0 0 1018.3 1018.3 0.0
06/06:00am 7.9 7.3 7.5 97 0.2 CALM 0 0 0 0 1018.0 1018.0 0.0
06/05:30am 8.0 7.4 7.6 97 0.2 CALM 0 0 0 0 1017.8 1017.8 0.0
06/05:00am 8.1 7.6 7.7 97 0.2 CALM 0 0 0 0 1017.7 1017.7 0.0
06/04:30am 8.0 7.4 7.6 97 0.2 CALM 0 0 0 0 1017.6 1017.6 0.0
06/04:00am 8.3 7.8 7.9 97 0.2 CALM 0 0 0 0 1017.5 1017.5 0.0
06/03:30am 8.6 8.2 8.2 97 0.2 CALM 0 0 0 0 1017.6 1017.6 0.0
06/03:00am 8.9 8.6 8.5 97 0.2 CALM 0 0 0 0 1017.7 1017.7 0.0
06/02:30am 9.2 8.9 8.7 97 0.2 CALM 0 0 0 0 1017.7 1017.7 0.0
06/02:00am 9.3 9.0 8.7 96 0.3 CALM 0 0 0 0 1017.9 1017.9 0.0
06/01:30am 9.5 9.3 8.9 96 0.3 CALM 0 0 0 0 1017.9 1017.9 0.0
06/01:00am 10.2 10.1 9.6 96 0.3 CALM 0 0 0 0 1017.8 1017.8 0.0
06/12:30am 9.9 9.8 9.3 96 0.3 CALM 0 0 0 0 1018.0 1018.0 0.0
06/12:00am 10.4 10.4 9.8 96 0.3 CALM 0 0 0 0 1018.1 1018.1 0.0
 
Date/Time
EST
Temp
°C
App
Temp
°C
Dew
Point
Rel
Hum
%
Delta-T
°C
Wind Press
QNH
hPa
Press
MSL
hPa
Rain
since 9 am
mm
Dir
 
Spd
km/h
Gust
km/h
Spd
kts
Gust
kts
05/11:30pm 10.9 11.0 10.3 96 0.3 CALM 0 0 0 0 1018.2 1018.2 0.0
05/11:00pm 10.8 10.9 10.0 95 0.4 CALM 0 0 0 0 1018.3 1018.3 0.0
05/10:30pm 11.4 11.6 10.6 95 0.4 CALM 0 0 0 0 1018.3 1018.3 0.0
05/10:00pm 11.8 12.1 11.0 95 0.4 CALM 0 0 0 0 1018.5 1018.5 0.0
05/09:30pm 12.4 13.0 11.8 96 0.3 CALM 0 0 0 0 1018.5 1018.5 0.0
05/09:00pm 12.7 13.3 11.9 95 0.4 CALM 0 0 0 0 1018.7 1018.7 0.0
05/08:30pm 12.9 13.6 12.1 95 0.4 CALM 0 0 0 0 1018.6 1018.6 0.0
05/08:00pm 13.6 14.4 12.7 94 0.5 CALM 0 0 0 0 1018.6 1018.6 0.0
05/07:30pm 14.3 15.3 13.2 93 0.6 CALM 0 0 0 0 1018.4 1018.4 0.0
05/07:00pm 15.2 16.5 14.2 94 0.6 CALM 0 0 0 0 1018.2 1018.2 0.0
05/06:30pm 15.1 16.2 13.6 91 0.8 CALM 0 0 0 0 1018.0 1018.0 0.0
05/06:00pm 16.3 17.6 14.1 87 1.2 CALM 0 0 0 0 1017.8 1017.8 0.0
05/05:30pm 18.1 19.6 14.6 80 2.0 CALM 0 0 0 0 1017.5 1017.5 0.0
05/05:00pm 19.9 21.2 15.1 74 2.8 SE 2 4 1 2 1017.3 1017.3 0.0
05/04:30pm 20.9 21.4 15.0 69 3.5 E 6 11 3 6 1017.1 1017.1 0.0
05/04:00pm 21.2 21.0 14.8 67 3.8 ESE 9 17 5 9 1017.1 1017.1 0.0
05/03:30pm 21.8 22.1 14.9 65 4.1 ESE 7 13 4 7 1017.1 1017.1 0.0
05/03:00pm 21.7 21.0 14.4 63 4.3 E 11 19 6 10 1017.1 1017.1 0.0
05/02:30pm 21.7 20.3 14.4 63 4.3 ESE 15 22 8 12 1017.1 1017.1 0.0
05/02:00pm 22.3 21.7 13.6 58 5.0 E 9 17 5 9 1017.2 1017.2 0.0
05/01:30pm 22.1 20.9 12.9 56 5.3 E 11 17 6 9 1017.4 1017.4 0.0
05/01:00pm 23.2 22.6 13.4 54 5.7 E 9 15 5 8 1017.5 1017.5 0.0
05/12:30pm 23.5 23.0 12.8 51 6.1 E 7 13 4 7 1017.9 1017.9 0.0
05/12:00pm 23.7 23.7 12.4 49 6.4 NE 4 9 2 5 1018.4 1018.4 0.0
05/11:30am 23.1 22.1 10.9 46 6.8 WNW 7 9 4 5 1019.0 1019.0 0.0
05/11:00am 22.7 22.0 12.0 50 6.0 NW 7 13 4 7 1019.6 1019.6 0.0
05/10:30am 22.1 22.8 13.5 58 5.0 WSW 2 6 1 3 1020.0 1020.0 0.0
05/10:00am 21.2 22.8 14.8 67 3.8 CALM 0 0 0 0 1020.5 1020.5 0.0
05/09:30am 18.7 19.8 14.6 77 2.4 ENE 2 4 1 2 1020.7 1020.7 0.0
05/09:00am 17.3 19.3 16.0 92 0.8 CALM 0 0 0 0 1020.9 1020.9 0.0
05/08:30am 15.7 17.5 15.5 99 0.1 CALM 0 0 0 0 1020.9 1020.9 0.0
05/08:00am 12.1 12.7 11.8 98 0.2 CALM 0 0 0 0 1020.7 1020.7 0.0
05/07:30am 9.7 9.5 9.2 97 0.2 CALM 0 0 0 0 1020.4 1020.4 0.0
05/07:00am 8.9 8.6 8.5 97 0.2 CALM 0 0 0 0 1020.1 1020.1 0.0
05/06:30am 8.9 8.6 8.5 97 0.2 CALM 0 0 0 0 1019.8 1019.8 0.0
05/06:00am 8.8 8.4 8.2 96 0.3 CALM 0 0 0 0 1019.5 1019.5 0.0
05/05:30am 9.2 8.9 8.7 97 0.2 CALM 0 0 0 0 1019.3 1019.3 0.0
05/05:00am 9.3 9.0 8.7 96 0.3 CALM 0 0 0 0 1019.1 1019.1 0.0
05/04:30am 9.6 9.4 9.0 96 0.3 CALM 0 0 0 0 1018.8 1018.8 0.0
05/04:00am 9.5 9.3 8.9 96 0.3 CALM 0 0 0 0 1018.5 1018.5 0.0
05/03:30am 9.8 9.6 9.2 96 0.3 CALM 0 0 0 0 1018.3 1018.3 0.0
05/03:00am 10.1 10.0 9.5 96 0.3 CALM 0 0 0 0 1018.3 1018.3 0.0
05/02:30am 10.2 10.1 9.6 96 0.3 CALM 0 0 0 0 1018.3 1018.3 0.0
05/02:00am 10.4 10.4 9.8 96 0.3 CALM 0 0 0 0 1018.4 1018.4 0.0
05/01:30am 10.8 10.9 10.0 95 0.4 CALM 0 0 0 0 1018.5 1018.5 0.0
05/01:00am 10.8 10.9 10.0 95 0.4 CALM 0 0 0 0 1018.6 1018.6 0.0
05/12:30am 11.1 11.2 10.2 94 0.5 CALM 0 0 0 0 1018.7 1018.7 0.0
05/12:00am 11.3 11.5 10.4 94 0.5 CALM 0 0 0 0 1018.7 1018.7 0.0
 
Date/Time
EST
Temp
°C
App
Temp
°C
Dew
Point
Rel
Hum
%
Delta-T
°C
Wind Press
QNH
hPa
Press
MSL
hPa
Rain
since 9 am
mm
Dir
 
Spd
km/h
Gust
km/h
Spd
kts
Gust
kts
04/11:30pm 11.7 12.0 10.8 94 0.5 CALM 0 0 0 0 1018.6 1018.6 0.0
04/11:00pm 11.4 11.5 10.3 93 0.6 CALM 0 0 0 0 1018.6 1018.6 0.0
04/10:30pm 12.4 12.8 11.3 93 0.6 CALM 0 0 0 0 1018.6 1018.6 0.0
04/10:00pm 12.4 12.7 11.0 91 0.7 CALM 0 0 0 0 1018.7 1018.7 0.0
04/09:30pm 13.1 13.6 11.7 91 0.7 CALM 0 0 0 0 1018.6 1018.6 0.0
04/09:00pm 13.6 14.2 12.0 90 0.9 CALM 0 0 0 0 1018.4 1018.4 0.0
04/08:30pm 13.9 14.5 11.9 88 1.1 CALM 0 0 0 0 1018.2 1018.2 0.0
04/08:00pm 14.2 14.9 12.1 87 1.1 CALM 0 0 0 0 1017.8 1017.8 0.0
04/07:30pm 14.9 15.6 12.2 84 1.5 CALM 0 0 0 0 1017.4 1017.4 0.0
04/07:00pm 15.4 16.1 12.2 81 1.7 CALM 0 0 0 0 1017.1 1017.1 0.0
04/06:30pm 16.2 16.9 12.2 77 2.2 CALM 0 0 0 0 1016.6 1016.6 0.0
04/06:00pm 18.0 18.7 12.2 69 3.2 CALM 0 0 0 0 1016.1 1016.1 0.0
04/05:30pm 19.6 19.3 11.4 59 4.5 ESE 4 6 2 3 1015.3 1015.3 0.0
04/05:00pm 21.3 19.9 10.8 51 5.8 ESE 9 13 5 7 1014.8 1014.8 0.0
04/04:30pm 24.0 23.4 8.8 38 8.2 ENE 2 6 1 3 1014.4 1014.4 0.0
04/04:00pm 24.6 22.6 7.3 33 9.1 N 7 13 4 7 1014.1 1014.1 0.0
04/03:30pm 25.7 24.3 7.3 31 9.7 NNE 4 6 2 3 1014.0 1014.0 0.0
04/03:00pm 25.6 23.7 7.7 32 9.5 N 7 11 4 6 1014.0 1014.0 0.0
04/02:30pm 26.1 24.7 7.2 30 10.0 WNW 4 7 2 4 1014.0 1014.0 0.0
04/02:00pm 25.2 23.2 6.9 31 9.6 N 7 9 4 5 1014.1 1014.1 0.0
04/01:30pm 25.6 24.3 7.7 32 9.5 WSW 4 13 2 7 1014.0 1014.0 0.0
04/01:00pm 24.8 22.3 6.5 31 9.5 WNW 9 19 5 10 1014.4 1014.4 0.0
04/12:30pm 24.6 21.9 7.3 33 9.1 WNW 11 17 6 9 1014.7 1014.7 0.0
04/12:00pm 24.7 23.0 8.2 35 8.8 WNW 7 20 4 11 1014.9 1014.9 0.0
04/11:30am 24.2 21.9 7.4 34 8.8 NW 9 17 5 9 1015.3 1015.3 0.0
04/11:00am 23.8 21.5 7.4 35 8.6 NW 9 19 5 10 1015.6 1015.6 0.0
04/10:30am 23.2 20.2 6.1 33 8.7 NW 11 19 6 10 1015.8 1015.8 0.0
04/10:00am 22.8 20.5 7.4 37 8.0 NW 9 17 5 9 1015.8 1015.8 0.0
04/09:30am 21.8 19.8 8.7 43 6.9 NNW 9 17 5 9 1015.7 1015.7 0.0
04/09:00am 20.9 19.9 10.4 51 5.7 NNW 6 13 3 7 1015.8 1015.8 0.0
04/08:30am 18.1 17.8 12.8 71 3.0 N 6 7 3 4 1015.7 1015.7 0.0
04/08:24am 16.8 17.0 14.3 85 1.4 N 6 9 3 5 1015.7 1015.7 0.0
04/08:00am 11.7 12.1 11.2 97 0.3 CALM 0 0 0 0 1015.5 1015.5 0.0
04/07:30am 9.6 9.4 9.0 96 0.3 CALM 0 0 0 0 1015.1 1015.1 0.0
04/07:00am 8.6 8.1 7.8 95 0.4 CALM 0 0 0 0 1014.6 1014.6 0.0
04/06:30am 8.5 7.9 7.6 94 0.4 CALM 0 0 0 0 1014.2 1014.2 0.0
04/06:00am 8.9 8.4 8.0 94 0.4 CALM 0 0 0 0 1013.9 1013.9 0.0
04/05:30am 9.3 8.9 8.4 94 0.4 CALM 0 0 0 0 1013.6 1013.6 0.0
04/05:00am 9.7 9.4 8.6 93 0.5 CALM 0 0 0 0 1013.4 1013.4 0.0
04/04:30am 9.4 9.0 8.2 92 0.6 CALM 0 0 0 0 1013.3 1013.3 0.0
04/04:00am 9.8 8.6 8.2 90 0.8 NNW 4 7 2 4 1013.0 1013.0 0.0
04/03:30am 10.9 10.7 9.0 88 0.9 CALM 0 0 0 0 1012.9 1012.9 0.0
04/03:00am 11.3 11.0 8.7 84 1.3 CALM 0 0 0 0 1012.8 1012.8 0.0
04/02:30am 12.1 11.9 9.1 82 1.5 CALM 0 6 0 3 1012.7 1012.7 0.0
04/02:00am 13.0 12.8 9.1 77 2.0 CALM 0 0 0 0 1012.8 1012.8 0.0
04/01:30am 14.1 13.9 9.1 72 2.5 CALM 0 0 0 0 1012.6 1012.6 0.0
04/01:00am 14.9 14.5 8.4 65 3.3 CALM 0 0 0 0 1012.4 1012.4 0.0
04/12:30am 15.9 15.5 8.2 60 3.9 CALM 0 0 0 0 1012.3 1012.3 0.0
04/12:00am 17.0 16.2 8.2 56 4.5 NE 2 6 1 3 1012.1 1012.1 0.0
 
Date/Time
EST
Temp
°C
App
Temp
°C
Dew
Point
Rel
Hum
%
Delta-T
°C
Wind Press
QNH
hPa
Press
MSL
hPa
Rain
since 9 am
mm
Dir
 
Spd
km/h
Gust
km/h
Spd
kts
Gust
kts
03/11:30pm 19.4 17.6 7.2 45 6.2 WNW 6 13 3 7 1011.8 1011.8 0.0
03/11:00pm 19.7 17.9 7.8 46 6.1 WNW 7 19 4 10 1011.6 1011.6 0.0
03/10:30pm 19.7 18.0 8.4 48 5.9 WNW 7 13 4 7 1011.5 1011.5 0.0
03/10:00pm 19.7 18.3 8.7 49 5.8 WNW 6 9 3 5 1011.3 1011.3 0.0
03/09:30pm 19.6 18.2 8.9 50 5.6 NW 6 13 3 7 1010.8 1010.8 0.0
03/09:00pm 18.6 17.7 10.7 60 4.3 WNW 6 15 3 8 1010.5 1010.5 0.0
03/08:30pm 14.2 14.2 11.0 81 1.7 ESE 2 6 1 3 1010.3 1010.3 0.0
03/08:00pm 14.3 14.6 10.9 80 1.8 CALM 0 0 0 0 1010.4 1010.4 0.0
03/07:30pm 14.2 14.5 10.8 80 1.8 CALM 0 0 0 0 1009.9 1009.9 0.0

Other Formats:

Comma delimited format used in spreadsheet applications
http://www.bom.gov.au/fwo/IDN60801/IDN60801.95767.axf

JavaScript Object Notation format (JSON) in row-major order
http://www.bom.gov.au/fwo/IDN60801/IDN60801.95767.json